CST,Max TemperatureF,Mean TemperatureF,Min TemperatureF,Max Dew PointF,MeanDew PointF,Min DewpointF,Max Humidity, Mean Humidity, Min Humidity, Max Sea Level PressureIn, Mean Sea Level PressureIn, Min Sea Level PressureIn, Max VisibilityMiles, Mean VisibilityMiles, Min VisibilityMiles, Max Wind SpeedMPH, Mean Wind SpeedMPH, Max Gust SpeedMPH,PrecipitationIn, CloudCover, Events, WindDirDegrees
2014-2-1,23,12,1,19,7,-8,93,72,49,30.30,30.10,29.89,10,10,5,23,12,32,0.00,1,,296
2014-2-2,33,16,0,12,5,-8,100,67,35,30.30,30.22,30.12,10,10,10,16,6,22,0.00,0,,199
2014-2-3,26,16,6,16,10,1,100,75,47,30.29,30.19,30.13,10,10,5,14,7,16,0.00,0,,24
2014-2-4,12,8,3,9,2,-6,85,76,56,30.54,30.41,30.29,10,7,2,23,14,28,0.00,4,,13
2014-2-5,6,1,-5,0,-5,-11,92,74,56,30.65,30.60,30.54,10,9,3,23,15,28,0.00,1,,310
2014-2-6,6,-2,-9,-2,-9,-15,100,72,56,30.59,30.47,30.31,10,10,10,18,11,24,0.00,0,,265
2014-2-7,17,3,-11,16,-4,-27,100,66,27,30.30,30.17,30.04,10,10,10,16,5,22,0.00,1,,186
2014-2-8,19,14,8,12,10,3,100,81,63,30.25,30.06,29.96,10,9,2,14,8,16,0.00,3,,336
2014-2-9,10,3,-5,5,-2,-11,100,77,60,30.45,30.37,30.25,10,10,10,15,10,16,0.00,2,,323
2014-2-10,12,2,-9,1,-5,-18,100,71,53,30.48,30.44,30.40,10,10,10,13,3,,0.00,3,,120
2014-2-11,26,16,6,19,11,0,86,74,57,30.39,30.14,29.92,10,10,10,23,11,31,0.00,6,,162
2014-2-12,30,21,12,23,15,9,93,79,68,30.17,29.98,29.65,10,9,1,21,10,28,0.00,3,,207
2014-2-13,42,30,17,28,20,7,70,63,51,29.79,29.71,29.57,10,10,10,29,15,37,0.00,1,,305
2014-2-14,21,16,10,10,7,3,85,69,54,30.09,29.97,29.76,10,10,9,17,9,22,0.00,3,,348
2014-2-15,53,34,15,30,21,9,93,68,38,30.11,29.87,29.71,10,10,8,37,15,45,0.00,4,,269
2014-2-16,35,25,15,28,17,10,93,74,52,30.16,29.97,29.71,10,10,8,28,13,32,0.00,4,,122
2014-2-17,48,40,33,34,26,19,100,62,34,29.87,29.80,29.70,10,9,2,26,16,34,0.12,2,,247
2014-2-18,55,40,26,32,26,19,93,61,36,29.92,29.71,29.57,10,10,10,37,10,43,0.00,0,,283
2014-2-19,57,40,24,30,22,18,93,55,21,29.91,29.73,29.55,10,10,10,32,10,39,0.00,0,,178
2014-2-20,42,30,19,30,22,12,87,68,42,29.75,29.65,29.54,10,10,10,34,17,43,0.00,4,,305
2014-2-21,39,28,17,21,15,9,80,63,44,29.89,29.78,29.73,10,10,10,20,12,25,0.00,2,,287
2014-2-22,30,24,17,18,9,3,86,56,34,30.24,30.06,29.89,10,10,9,14,7,21,0.00,5,,329
2014-2-23,28,18,8,10,7,3,92,62,40,30.37,30.33,30.24,10,10,10,17,7,23,0.00,1,,297
2014-2-24,19,12,6,18,11,1,100,79,58,30.43,30.31,30.21,10,6,1,22,6,24,0.00,4,,50
2014-2-25,12,4,-5,3,-3,-13,100,77,57,30.49,30.43,30.39,10,10,5,22,11,25,0.00,1,,293
2014-2-26,28,8,-11,16,1,-17,100,70,37,30.45,30.09,29.86,10,10,10,23,10,38,0.00,0,,258
2014-2-27,10,3,-4,1,-6,-17,100,66,46,30.19,30.06,29.85,10,10,8,16,8,18,0.00,1,,77
2014-2-28,23,14,5,18,7,0,93,74,58,30.24,29.92,29.74,10,8,1,24,12,28,0.00,4,,343